EIKN/NOC METAR and TAF weather

Enter ICAO airport designator
Station Type Date Time Source
EIKN METAR 2018/04/26 15:00 UTC NOAA

EIKN 261500Z 34007KT 290V020 9999 FEW017 SCT018CB 08/06 Q1013 RERA NOSIG


Station Type Date Time Source
EIKN Decoded METAR 2018/04/26 15:00 UTC NOAA

Connaught, Ireland (EIKN) 53-54-37N 008-49-05W
Apr 26, 2018 - 11:00 AM EDT / 2018.04.26 1500 UTC
Wind: from the NNW (340 degrees) at 8 MPH (7 KT) (direction variable):0
Visibility: greater than 7 mile(s):0
Sky conditions: partly cloudy
Weather: Cumulonimbus clouds observed
Temperature: 46 F (8 C)
Dew Point: 42 F (6 C)
Relative Humidity: 87%
Pressure (altimeter): 29.91 in. Hg (1013 hPa)
ob: EIKN 261500Z 34007KT 290V020 9999 FEW017 SCT018CB 08/06 Q1013 RERA NOSIG
cycle: 15

Station Type Date Time Source
EIKN TAF 2018/04/26 12:09 UTC NOAA

TAF EIKN 261100Z 2612/2712 28013KT 9999 SCT018 SCT022
TEMPO 2612/2620 -SHRA BKN013 SCT018CB PROB30
TEMPO 2612/2615 5000 SHRA
BECMG 2617/2619 29006KT
BECMG 2619/2621 VRB03KT
BECMG 2702/2705 04010KT PROB30
TEMPO 2703/2706 0500 FG BKN001
TEMPO 2709/2712 -SHRA SCT018CB


Example: see airport list